OAL017 SLPO-SBCG
Flight info
| Callsign | OAL017 |
|---|---|
| Flight time | 1h 35m |
| Altitude | 37000 |
| Route | ALC UW14 VIR UM411 ATERU UZ42 IRIPI |
| Aircraft | B738/M-SDE2E3FGHIRWXY/LB1 |
Departure
| Time | 2026-05-08 22:47 |
|---|---|
| Airport | Capitan Nicolas Rojas Airport (SLPO) |
Arrival
| Time | 2026-05-09 00:23 |
|---|---|
| Airport | Campo Grande Airport (SBCG) |
| Time | Latitude | Longitude | Altitude | Speed | Heading |
|---|---|---|---|---|---|
| 2026-05-08 22:39 | -19.54310 | -65.72043 | 12484 ft | 0 kts | 219° |
| 2026-05-08 22:42 | -19.54313 | -65.72048 | 12484 ft | 3 kts | 245° |
| 2026-05-08 22:43 | -19.54284 | -65.72079 | 12469 ft | 11 kts | 322° |
| 2026-05-08 22:43 | -19.54213 | -65.72144 | 12469 ft | 15 kts | 305° |
| 2026-05-08 22:43 | -19.54245 | -65.72261 | 12475 ft | 20 kts | 236° |
| 2026-05-08 22:43 | -19.54337 | -65.72407 | 12483 ft | 27 kts | 236° |
| 2026-05-08 22:44 | -19.54452 | -65.72587 | 12496 ft | 32 kts | 236° |
| 2026-05-08 22:44 | -19.54587 | -65.72799 | 12509 ft | 37 kts | 236° |
| 2026-05-08 22:44 | -19.54739 | -65.73038 | 12523 ft | 41 kts | 236° |
| 2026-05-08 22:44 | -19.54905 | -65.73301 | 12538 ft | 45 kts | 236° |
| 2026-05-08 22:45 | -19.55015 | -65.73433 | 12551 ft | 9 kts | 214° |
| 2026-05-08 22:45 | -19.55017 | -65.73435 | 12550 ft | 1 kts | 214° |
| 2026-05-08 22:45 | -19.55035 | -65.73449 | 12547 ft | 6 kts | 224° |
| 2026-05-08 22:45 | -19.55019 | -65.73480 | 12550 ft | 6 kts | 354° |
| 2026-05-08 22:46 | -19.54985 | -65.73439 | 12548 ft | 10 kts | 56° |
| 2026-05-08 22:46 | -19.54871 | -65.73256 | 12535 ft | 53 kts | 56° |
| 2026-05-08 22:46 | -19.54572 | -65.72777 | 12508 ft | 106 kts | 56° |
| 2026-05-08 22:46 | -19.54045 | -65.71953 | 12456 ft | 162 kts | 56° |
| 2026-05-08 22:47 | -19.53303 | -65.70854 | 12560 ft | 193 kts | 51° |
| 2026-05-08 22:47 | -19.52493 | -65.69708 | 13073 ft | 205 kts | 51° |
| 2026-05-08 22:47 | -19.51616 | -65.68403 | 13356 ft | 225 kts | 53° |
| 2026-05-08 22:47 | -19.50682 | -65.67083 | 13918 ft | 231 kts | 50° |
| 2026-05-08 22:48 | -19.49774 | -65.65627 | 14189 ft | 242 kts | 60° |
| 2026-05-08 22:48 | -19.49035 | -65.63960 | 14288 ft | 257 kts | 70° |
| 2026-05-08 22:48 | -19.48445 | -65.62131 | 14339 ft | 269 kts | 71° |
| 2026-05-08 22:48 | -19.47807 | -65.60224 | 14126 ft | 280 kts | 69° |
| 2026-05-08 22:49 | -19.47080 | -65.58243 | 14230 ft | 298 kts | 67° |
| 2026-05-08 22:49 | -19.45356 | -65.54044 | 14371 ft | 325 kts | 65° |
| 2026-05-08 22:49 | -19.44367 | -65.51798 | 14587 ft | 344 kts | 64° |
| 2026-05-08 22:50 | -19.43331 | -65.49509 | 15261 ft | 346 kts | 63° |
| 2026-05-08 22:50 | -19.42268 | -65.47199 | 15805 ft | 355 kts | 63° |
| 2026-05-08 22:50 | -19.41145 | -65.44785 | 15967 ft | 376 kts | 63° |
| 2026-05-08 22:50 | -19.39960 | -65.42251 | 16213 ft | 391 kts | 63° |
| 2026-05-08 22:51 | -19.38732 | -65.39636 | 16579 ft | 400 kts | 63° |
| 2026-05-08 22:51 | -19.37497 | -65.37007 | 17293 ft | 399 kts | 63° |
| 2026-05-08 22:51 | -19.36250 | -65.34355 | 17809 ft | 405 kts | 63° |
| 2026-05-08 22:51 | -19.34985 | -65.31668 | 18315 ft | 410 kts | 63° |
| 2026-05-08 22:52 | -19.33704 | -65.28949 | 18843 ft | 414 kts | 63° |
| 2026-05-08 22:52 | -19.32414 | -65.26210 | 19322 ft | 418 kts | 63° |
| 2026-05-08 22:52 | -19.31112 | -65.23445 | 19813 ft | 421 kts | 63° |
| 2026-05-08 22:52 | -19.29802 | -65.20665 | 20355 ft | 423 kts | 63° |
| 2026-05-08 22:53 | -19.28483 | -65.17868 | 20844 ft | 426 kts | 63° |
| 2026-05-08 22:53 | -19.27124 | -65.15066 | 21298 ft | 429 kts | 59° |
| 2026-05-08 22:53 | -19.25452 | -65.12493 | 21790 ft | 431 kts | 49° |
| 2026-05-08 22:53 | -19.23439 | -65.10078 | 22279 ft | 433 kts | 47° |
| 2026-05-08 22:54 | -19.21437 | -65.07744 | 22727 ft | 436 kts | 47° |
| 2026-05-08 22:54 | -19.19409 | -65.05345 | 23152 ft | 439 kts | 47° |
| 2026-05-08 22:54 | -19.17386 | -65.02910 | 23556 ft | 443 kts | 48° |
| 2026-05-08 22:54 | -19.15353 | -65.00443 | 23942 ft | 446 kts | 48° |
| 2026-05-08 22:55 | -19.13315 | -64.97956 | 24277 ft | 449 kts | 48° |
| 2026-05-08 22:55 | -19.11270 | -64.95458 | 24633 ft | 450 kts | 47° |
| 2026-05-08 22:55 | -19.09215 | -64.92949 | 24965 ft | 453 kts | 47° |
| 2026-05-08 22:55 | -19.07148 | -64.90427 | 25294 ft | 455 kts | 47° |
| 2026-05-08 22:56 | -19.05071 | -64.87894 | 25648 ft | 457 kts | 47° |
| 2026-05-08 22:56 | -19.02988 | -64.85356 | 26008 ft | 458 kts | 46° |
| 2026-05-08 22:56 | -19.00890 | -64.82802 | 26352 ft | 461 kts | 46° |
| 2026-05-08 22:56 | -18.98783 | -64.80238 | 26688 ft | 464 kts | 46° |
| 2026-05-08 22:57 | -18.96661 | -64.77657 | 27007 ft | 467 kts | 46° |
| 2026-05-08 22:57 | -18.94524 | -64.75058 | 27321 ft | 470 kts | 46° |
| 2026-05-08 22:57 | -18.92376 | -64.72448 | 27643 ft | 472 kts | 45° |
| 2026-05-08 22:57 | -18.90216 | -64.69823 | 28009 ft | 473 kts | 45° |
| 2026-05-08 22:58 | -18.88048 | -64.67189 | 28336 ft | 476 kts | 45° |
| 2026-05-08 22:58 | -18.85873 | -64.64548 | 28638 ft | 478 kts | 45° |
| 2026-05-08 22:58 | -18.83687 | -64.61894 | 28940 ft | 480 kts | 45° |
| 2026-05-08 22:58 | -18.81485 | -64.59223 | 29236 ft | 483 kts | 45° |
| 2026-05-08 22:59 | -18.79279 | -64.56549 | 29512 ft | 485 kts | 45° |
| 2026-05-08 22:59 | -18.77064 | -64.53858 | 29780 ft | 486 kts | 45° |
| 2026-05-08 22:59 | -18.75597 | -64.52064 | 29959 ft | 487 kts | 45° |
| 2026-05-08 22:59 | -18.73383 | -64.49347 | 30210 ft | 489 kts | 45° |
| 2026-05-08 23:00 | -18.70438 | -64.45728 | 30542 ft | 492 kts | 45° |
| 2026-05-08 23:00 | -18.68932 | -64.43878 | 30714 ft | 493 kts | 45° |
| 2026-05-08 23:00 | -18.66694 | -64.41130 | 31044 ft | 493 kts | 45° |
| 2026-05-08 23:00 | -18.64469 | -64.38399 | 31437 ft | 491 kts | 45° |
| 2026-05-08 23:01 | -18.62247 | -64.35673 | 31852 ft | 489 kts | 45° |
| 2026-05-08 23:01 | -18.60025 | -64.32951 | 32153 ft | 490 kts | 44° |
| 2026-05-08 23:01 | -18.57795 | -64.30223 | 32354 ft | 493 kts | 44° |
| 2026-05-08 23:01 | -18.55548 | -64.27478 | 32586 ft | 495 kts | 44° |
| 2026-05-08 23:02 | -18.53304 | -64.24735 | 32971 ft | 493 kts | 45° |
| 2026-05-08 23:02 | -18.51070 | -64.22003 | 33404 ft | 491 kts | 44° |
| 2026-05-08 23:02 | -18.48846 | -64.19284 | 33797 ft | 489 kts | 44° |
| 2026-05-08 23:02 | -18.46622 | -64.16567 | 34096 ft | 490 kts | 44° |
| 2026-05-08 23:03 | -18.44395 | -64.13849 | 34383 ft | 489 kts | 44° |
| 2026-05-08 23:03 | -18.42178 | -64.11145 | 34709 ft | 488 kts | 44° |
| 2026-05-08 23:03 | -18.39967 | -64.08447 | 35075 ft | 485 kts | 44° |
| 2026-05-08 23:03 | -18.37766 | -64.05764 | 35375 ft | 484 kts | 44° |
| 2026-05-08 23:04 | -18.35568 | -64.03084 | 35667 ft | 483 kts | 43° |
| 2026-05-08 23:04 | -18.33366 | -64.00404 | 35873 ft | 485 kts | 43° |
| 2026-05-08 23:04 | -18.31173 | -63.97733 | 36336 ft | 480 kts | 43° |
| 2026-05-08 23:04 | -18.28999 | -63.95086 | 36724 ft | 477 kts | 43° |
| 2026-05-08 23:05 | -18.26857 | -63.92480 | 36979 ft | 477 kts | 43° |
| 2026-05-08 23:05 | -18.24649 | -63.89799 | 37053 ft | 481 kts | 43° |
| 2026-05-08 23:05 | -18.20249 | -63.84457 | 37061 ft | 483 kts | 43° |
| 2026-05-08 23:06 | -18.15871 | -63.79137 | 37053 ft | 478 kts | 43° |
| 2026-05-08 23:06 | -18.11531 | -63.73869 | 37085 ft | 476 kts | 43° |
| 2026-05-08 23:07 | -18.07219 | -63.68643 | 37063 ft | 476 kts | 43° |
| 2026-05-08 23:07 | -18.02882 | -63.63393 | 37085 ft | 476 kts | 43° |
| 2026-05-08 23:08 | -17.98531 | -63.58129 | 37062 ft | 477 kts | 43° |
| 2026-05-08 23:08 | -17.94174 | -63.52861 | 37064 ft | 478 kts | 43° |
| 2026-05-08 23:09 | -17.89805 | -63.47581 | 37060 ft | 479 kts | 43° |
| 2026-05-08 23:09 | -17.85423 | -63.42290 | 37051 ft | 481 kts | 42° |
| 2026-05-08 23:10 | -17.81035 | -63.36997 | 37037 ft | 481 kts | 43° |
| 2026-05-08 23:10 | -17.76644 | -63.31702 | 37028 ft | 481 kts | 43° |
| 2026-05-08 23:11 | -17.72251 | -63.26411 | 37022 ft | 481 kts | 43° |
| 2026-05-08 23:11 | -17.67865 | -63.21132 | 37021 ft | 480 kts | 43° |
| 2026-05-08 23:12 | -17.64342 | -63.15170 | 37041 ft | 497 kts | 71° |
| 2026-05-08 23:12 | -17.63844 | -63.11558 | 37011 ft | 505 kts | 88° |
| 2026-05-08 23:12 | -17.64298 | -63.07903 | 37026 ft | 508 kts | 104° |
| 2026-05-08 23:13 | -17.66268 | -63.00848 | 37025 ft | 508 kts | 106° |
| 2026-05-08 23:13 | -17.68347 | -62.93774 | 37026 ft | 507 kts | 106° |
| 2026-05-08 23:14 | -17.70366 | -62.86640 | 37031 ft | 506 kts | 105° |
| 2026-05-08 23:14 | -17.72304 | -62.79595 | 37046 ft | 505 kts | 105° |
| 2026-05-08 23:15 | -17.74235 | -62.72519 | 37036 ft | 505 kts | 105° |
| 2026-05-08 23:15 | -17.76168 | -62.65439 | 37030 ft | 505 kts | 105° |
| 2026-05-08 23:16 | -17.78114 | -62.58312 | 37034 ft | 505 kts | 105° |
| 2026-05-08 23:16 | -17.80048 | -62.51221 | 37034 ft | 506 kts | 105° |
| 2026-05-08 23:17 | -17.81968 | -62.44173 | 37034 ft | 506 kts | 105° |
| 2026-05-08 23:17 | -17.83898 | -62.37077 | 37030 ft | 505 kts | 105° |
| 2026-05-08 23:18 | -17.85822 | -62.29987 | 37028 ft | 505 kts | 104° |
| 2026-05-08 23:18 | -17.87744 | -62.22898 | 37025 ft | 505 kts | 104° |
| 2026-05-08 23:19 | -17.89658 | -62.15826 | 37026 ft | 503 kts | 105° |
| 2026-05-08 23:19 | -17.91569 | -62.08756 | 37017 ft | 502 kts | 105° |
| 2026-05-08 23:20 | -17.93472 | -62.01703 | 37015 ft | 501 kts | 105° |
| 2026-05-08 23:20 | -17.95369 | -61.94660 | 37020 ft | 501 kts | 104° |
| 2026-05-08 23:21 | -17.97266 | -61.87605 | 37024 ft | 502 kts | 104° |
| 2026-05-08 23:21 | -17.99163 | -61.80543 | 37017 ft | 502 kts | 104° |
| 2026-05-08 23:22 | -18.01081 | -61.73481 | 37010 ft | 503 kts | 105° |
| 2026-05-08 23:22 | -18.03018 | -61.66408 | 37011 ft | 504 kts | 105° |
| 2026-05-08 23:23 | -18.04948 | -61.59330 | 37008 ft | 504 kts | 105° |
| 2026-05-08 23:23 | -18.06876 | -61.52237 | 37003 ft | 505 kts | 105° |
| 2026-05-08 23:24 | -18.08800 | -61.45148 | 36999 ft | 505 kts | 105° |
| 2026-05-08 23:24 | -18.10750 | -61.38052 | 36993 ft | 505 kts | 105° |
| 2026-05-08 23:25 | -18.12741 | -61.30971 | 37010 ft | 505 kts | 105° |
| 2026-05-08 23:25 | -18.14734 | -61.23883 | 37005 ft | 506 kts | 105° |
| 2026-05-08 23:26 | -18.16720 | -61.16784 | 36981 ft | 506 kts | 105° |
| 2026-05-08 23:26 | -18.18686 | -61.09730 | 36982 ft | 506 kts | 105° |
| 2026-05-08 23:27 | -18.20659 | -61.02635 | 36976 ft | 506 kts | 105° |
| 2026-05-08 23:27 | -18.22633 | -60.95530 | 36993 ft | 505 kts | 105° |
| 2026-05-08 23:28 | -18.24599 | -60.88442 | 36984 ft | 505 kts | 105° |
| 2026-05-08 23:28 | -18.26561 | -60.81359 | 36984 ft | 504 kts | 105° |
| 2026-05-08 23:29 | -18.28520 | -60.74275 | 36974 ft | 503 kts | 105° |
| 2026-05-08 23:29 | -18.30470 | -60.67211 | 36982 ft | 502 kts | 105° |
| 2026-05-08 23:30 | -18.32414 | -60.60161 | 36992 ft | 501 kts | 105° |
| 2026-05-08 23:30 | -18.34355 | -60.53106 | 36985 ft | 502 kts | 105° |
| 2026-05-08 23:31 | -18.36296 | -60.46042 | 36982 ft | 503 kts | 105° |
| 2026-05-08 23:31 | -18.38239 | -60.38964 | 36987 ft | 504 kts | 105° |
| 2026-05-08 23:32 | -18.40182 | -60.31871 | 36984 ft | 505 kts | 105° |
| 2026-05-08 23:32 | -18.42114 | -60.24806 | 36982 ft | 506 kts | 105° |
| 2026-05-08 23:33 | -18.44066 | -60.17660 | 36984 ft | 507 kts | 105° |
| 2026-05-08 23:33 | -18.46012 | -60.10522 | 36975 ft | 507 kts | 105° |
| 2026-05-08 23:34 | -18.47953 | -60.03391 | 36974 ft | 506 kts | 105° |
| 2026-05-08 23:34 | -18.49888 | -59.96273 | 37026 ft | 505 kts | 105° |
| 2026-05-08 23:35 | -18.51818 | -59.89160 | 37042 ft | 505 kts | 105° |
| 2026-05-08 23:35 | -18.53745 | -59.82043 | 37053 ft | 505 kts | 105° |
| 2026-05-08 23:36 | -18.55672 | -59.74918 | 37032 ft | 506 kts | 105° |
| 2026-05-08 23:36 | -18.57600 | -59.67780 | 37020 ft | 506 kts | 105° |
| 2026-05-08 23:37 | -18.59524 | -59.60643 | 37001 ft | 506 kts | 105° |
| 2026-05-08 23:37 | -18.61444 | -59.53510 | 36979 ft | 505 kts | 105° |
| 2026-05-08 23:38 | -18.63349 | -59.46420 | 36976 ft | 506 kts | 105° |
| 2026-05-08 23:38 | -18.65266 | -59.39276 | 36970 ft | 505 kts | 105° |
| 2026-05-08 23:39 | -18.67177 | -59.32140 | 36972 ft | 505 kts | 105° |
| 2026-05-08 23:39 | -18.69081 | -59.25020 | 36976 ft | 504 kts | 105° |
| 2026-05-08 23:40 | -18.70982 | -59.17899 | 36974 ft | 505 kts | 105° |
| 2026-05-08 23:40 | -18.72870 | -59.10814 | 36963 ft | 505 kts | 105° |
| 2026-05-08 23:41 | -18.74768 | -59.03682 | 36969 ft | 505 kts | 105° |
| 2026-05-08 23:41 | -18.76664 | -58.96544 | 36967 ft | 505 kts | 105° |
| 2026-05-08 23:42 | -18.78557 | -58.89409 | 36972 ft | 505 kts | 105° |
| 2026-05-08 23:42 | -18.80445 | -58.82276 | 36967 ft | 505 kts | 105° |
| 2026-05-08 23:43 | -18.82334 | -58.75128 | 36966 ft | 505 kts | 105° |
| 2026-05-08 23:43 | -18.84218 | -58.67990 | 36964 ft | 505 kts | 105° |
| 2026-05-08 23:44 | -18.86107 | -58.60858 | 37009 ft | 504 kts | 105° |
| 2026-05-08 23:44 | -18.88060 | -58.53740 | 36991 ft | 505 kts | 106° |
| 2026-05-08 23:45 | -18.90024 | -58.46611 | 37000 ft | 506 kts | 106° |
| 2026-05-08 23:45 | -18.91975 | -58.39475 | 36989 ft | 506 kts | 106° |
| 2026-05-08 23:46 | -18.93592 | -58.33540 | 36979 ft | 506 kts | 106° |
| 2026-05-08 23:46 | -18.95539 | -58.26395 | 36979 ft | 506 kts | 106° |
| 2026-05-08 23:47 | -18.97489 | -58.19262 | 36972 ft | 505 kts | 106° |
| 2026-05-08 23:47 | -18.99435 | -58.12136 | 36966 ft | 505 kts | 106° |
| 2026-05-08 23:48 | -19.01377 | -58.05010 | 36969 ft | 505 kts | 106° |
| 2026-05-08 23:48 | -19.03316 | -57.97878 | 36950 ft | 505 kts | 106° |
| 2026-05-08 23:49 | -19.05255 | -57.90737 | 36926 ft | 506 kts | 106° |
| 2026-05-08 23:49 | -19.07192 | -57.83590 | 36918 ft | 506 kts | 106° |
| 2026-05-08 23:50 | -19.09258 | -57.76494 | 36916 ft | 505 kts | 110° |
| 2026-05-08 23:50 | -19.11623 | -57.69508 | 36914 ft | 505 kts | 111° |
| 2026-05-08 23:51 | -19.14020 | -57.62526 | 36910 ft | 505 kts | 110° |
| 2026-05-08 23:51 | -19.16375 | -57.55524 | 36918 ft | 506 kts | 110° |
| 2026-05-08 23:52 | -19.18711 | -57.48497 | 36920 ft | 506 kts | 110° |
| 2026-05-08 23:52 | -19.21026 | -57.41513 | 36934 ft | 507 kts | 110° |
| 2026-05-08 23:53 | -19.23360 | -57.34469 | 36910 ft | 507 kts | 110° |
| 2026-05-08 23:53 | -19.25693 | -57.27424 | 36908 ft | 507 kts | 110° |
| 2026-05-08 23:54 | -19.28023 | -57.20375 | 36898 ft | 507 kts | 110° |
| 2026-05-08 23:55 | -19.31511 | -57.09806 | 36893 ft | 507 kts | 110° |
| 2026-05-08 23:55 | -19.33833 | -57.02760 | 36905 ft | 506 kts | 110° |
| 2026-05-08 23:56 | -19.36385 | -56.95823 | 36895 ft | 505 kts | 118° |
| 2026-05-08 23:56 | -19.39641 | -56.89231 | 36904 ft | 504 kts | 120° |
| 2026-05-08 23:57 | -19.42969 | -56.82695 | 36893 ft | 504 kts | 120° |
| 2026-05-08 23:57 | -19.46242 | -56.76129 | 36900 ft | 504 kts | 119° |
| 2026-05-08 23:58 | -19.49479 | -56.69530 | 36887 ft | 506 kts | 119° |
| 2026-05-08 23:58 | -19.52707 | -56.62917 | 36894 ft | 505 kts | 119° |
| 2026-05-08 23:59 | -19.55937 | -56.56298 | 36714 ft | 508 kts | 119° |
| 2026-05-08 23:59 | -19.57569 | -56.52953 | 36142 ft | 511 kts | 119° |
| 2026-05-08 23:59 | -19.59195 | -56.49620 | 35597 ft | 509 kts | 119° |
| 2026-05-08 23:59 | -19.60824 | -56.46280 | 34949 ft | 510 kts | 119° |
| 2026-05-09 00:00 | -19.62454 | -56.42935 | 34286 ft | 512 kts | 119° |
| 2026-05-09 00:00 | -19.64095 | -56.39566 | 33553 ft | 515 kts | 119° |
| 2026-05-09 00:00 | -19.65742 | -56.36183 | 32802 ft | 517 kts | 119° |
| 2026-05-09 00:00 | -19.67366 | -56.32845 | 32167 ft | 516 kts | 119° |
| 2026-05-09 00:01 | -19.69005 | -56.29472 | 31676 ft | 512 kts | 119° |
| 2026-05-09 00:01 | -19.70634 | -56.26117 | 31162 ft | 509 kts | 119° |
| 2026-05-09 00:01 | -19.72248 | -56.22792 | 30660 ft | 506 kts | 119° |
| 2026-05-09 00:01 | -19.73854 | -56.19483 | 30142 ft | 503 kts | 119° |
| 2026-05-09 00:02 | -19.75449 | -56.16193 | 29580 ft | 500 kts | 119° |
| 2026-05-09 00:02 | -19.77030 | -56.12931 | 29029 ft | 495 kts | 119° |
| 2026-05-09 00:02 | -19.78598 | -56.09694 | 28521 ft | 491 kts | 119° |
| 2026-05-09 00:02 | -19.80153 | -56.06483 | 27993 ft | 487 kts | 119° |
| 2026-05-09 00:03 | -19.81691 | -56.03305 | 27478 ft | 483 kts | 119° |
| 2026-05-09 00:03 | -19.83224 | -56.00135 | 26968 ft | 479 kts | 119° |
| 2026-05-09 00:03 | -19.84738 | -55.97003 | 26470 ft | 475 kts | 118° |
| 2026-05-09 00:03 | -19.86243 | -55.93890 | 25970 ft | 472 kts | 118° |
| 2026-05-09 00:04 | -19.87735 | -55.90800 | 25455 ft | 469 kts | 118° |
| 2026-05-09 00:04 | -19.89220 | -55.87722 | 24948 ft | 466 kts | 118° |
| 2026-05-09 00:04 | -19.90697 | -55.84660 | 24445 ft | 464 kts | 118° |
| 2026-05-09 00:04 | -19.92160 | -55.81625 | 23943 ft | 462 kts | 118° |
| 2026-05-09 00:05 | -19.93621 | -55.78593 | 23442 ft | 460 kts | 118° |
| 2026-05-09 00:05 | -19.95071 | -55.75582 | 22877 ft | 457 kts | 118° |
| 2026-05-09 00:05 | -19.96513 | -55.72585 | 22360 ft | 452 kts | 118° |
| 2026-05-09 00:05 | -19.97939 | -55.69620 | 21875 ft | 448 kts | 118° |
| 2026-05-09 00:06 | -19.99352 | -55.66681 | 21376 ft | 445 kts | 118° |
| 2026-05-09 00:06 | -20.00755 | -55.63763 | 20898 ft | 441 kts | 117° |
| 2026-05-09 00:06 | -20.02288 | -55.60961 | 20390 ft | 437 kts | 129° |
| 2026-05-09 00:06 | -20.04244 | -55.58519 | 19965 ft | 431 kts | 134° |
| 2026-05-09 00:07 | -20.06269 | -55.56189 | 19473 ft | 428 kts | 135° |
| 2026-05-09 00:07 | -20.08296 | -55.53877 | 18993 ft | 425 kts | 135° |
| 2026-05-09 00:07 | -20.10294 | -55.51568 | 18510 ft | 423 kts | 134° |
| 2026-05-09 00:07 | -20.12263 | -55.49256 | 18012 ft | 421 kts | 134° |
| 2026-05-09 00:08 | -20.14211 | -55.46942 | 17498 ft | 418 kts | 133° |
| 2026-05-09 00:08 | -20.16135 | -55.44640 | 17015 ft | 414 kts | 133° |
| 2026-05-09 00:08 | -20.18012 | -55.42388 | 16543 ft | 401 kts | 133° |
| 2026-05-09 00:08 | -20.19836 | -55.40200 | 16107 ft | 393 kts | 133° |
| 2026-05-09 00:09 | -20.21648 | -55.38029 | 15678 ft | 391 kts | 133° |
| 2026-05-09 00:09 | -20.23446 | -55.35875 | 15245 ft | 389 kts | 133° |
| 2026-05-09 00:09 | -20.25180 | -55.33672 | 14782 ft | 388 kts | 124° |
| 2026-05-09 00:09 | -20.26479 | -55.31141 | 14241 ft | 390 kts | 115° |
| 2026-05-09 00:10 | -20.27633 | -55.28537 | 13788 ft | 384 kts | 114° |
| 2026-05-09 00:10 | -20.28744 | -55.25984 | 13229 ft | 376 kts | 114° |
| 2026-05-09 00:10 | -20.29849 | -55.23475 | 12563 ft | 372 kts | 114° |
| 2026-05-09 00:10 | -20.30946 | -55.21026 | 12261 ft | 358 kts | 114° |
| 2026-05-09 00:11 | -20.32005 | -55.18695 | 12113 ft | 341 kts | 114° |
| 2026-05-09 00:11 | -20.33013 | -55.16488 | 11797 ft | 331 kts | 114° |
| 2026-05-09 00:11 | -20.34022 | -55.14283 | 11476 ft | 323 kts | 114° |
| 2026-05-09 00:11 | -20.34987 | -55.12175 | 11075 ft | 319 kts | 114° |
| 2026-05-09 00:12 | -20.35957 | -55.10055 | 10606 ft | 318 kts | 114° |
| 2026-05-09 00:12 | -20.36925 | -55.07943 | 10169 ft | 316 kts | 114° |
| 2026-05-09 00:12 | -20.37878 | -55.05861 | 9927 ft | 307 kts | 114° |
| 2026-05-09 00:12 | -20.38810 | -55.03827 | 9887 ft | 308 kts | 114° |
| 2026-05-09 00:13 | -20.39879 | -55.01873 | 9822 ft | 306 kts | 131° |
| 2026-05-09 00:13 | -20.41421 | -55.00262 | 9825 ft | 314 kts | 137° |
| 2026-05-09 00:13 | -20.43032 | -54.98664 | 9732 ft | 320 kts | 137° |
| 2026-05-09 00:13 | -20.44666 | -54.97032 | 9297 ft | 324 kts | 136° |
| 2026-05-09 00:14 | -20.46301 | -54.95383 | 8802 ft | 323 kts | 136° |
| 2026-05-09 00:14 | -20.47921 | -54.93736 | 8269 ft | 322 kts | 136° |
| 2026-05-09 00:14 | -20.49554 | -54.92069 | 7549 ft | 328 kts | 135° |
| 2026-05-09 00:14 | -20.51215 | -54.90371 | 6948 ft | 330 kts | 135° |
| 2026-05-09 00:15 | -20.52833 | -54.88716 | 6833 ft | 314 kts | 135° |
| 2026-05-09 00:15 | -20.54437 | -54.87230 | 6708 ft | 300 kts | 150° |
| 2026-05-09 00:15 | -20.56363 | -54.86640 | 6528 ft | 282 kts | 186° |
| 2026-05-09 00:15 | -20.58202 | -54.87073 | 6230 ft | 264 kts | 213° |
| 2026-05-09 00:16 | -20.59686 | -54.88109 | 5867 ft | 249 kts | 233° |
| 2026-05-09 00:16 | -20.60844 | -54.89460 | 5437 ft | 247 kts | 238° |
| 2026-05-09 00:16 | -20.62228 | -54.90592 | 5163 ft | 267 kts | 206° |
| 2026-05-09 00:16 | -20.64160 | -54.90734 | 5032 ft | 290 kts | 172° |
| 2026-05-09 00:17 | -20.65997 | -54.89906 | 4935 ft | 287 kts | 143° |
| 2026-05-09 00:17 | -20.67283 | -54.88342 | 4588 ft | 278 kts | 110° |
| 2026-05-09 00:17 | -20.67660 | -54.86398 | 4204 ft | 262 kts | 77° |
| 2026-05-09 00:17 | -20.67132 | -54.84629 | 4040 ft | 247 kts | 50° |
| 2026-05-09 00:18 | -20.66071 | -54.83255 | 4021 ft | 234 kts | 31° |
| 2026-05-09 00:18 | -20.64721 | -54.82401 | 4020 ft | 222 kts | 18° |
| 2026-05-09 00:18 | -20.63316 | -54.81711 | 4023 ft | 223 kts | 18° |
| 2026-05-09 00:18 | -20.61911 | -54.81017 | 4023 ft | 222 kts | 18° |
| 2026-05-09 00:19 | -20.60536 | -54.80335 | 4010 ft | 209 kts | 18° |
| 2026-05-09 00:19 | -20.59369 | -54.79469 | 4023 ft | 205 kts | 36° |
| 2026-05-09 00:19 | -20.58359 | -54.78419 | 3786 ft | 200 kts | 34° |
| 2026-05-09 00:19 | -20.57346 | -54.77422 | 3314 ft | 197 kts | 35° |
| 2026-05-09 00:20 | -20.56379 | -54.76482 | 3157 ft | 180 kts | 34° |
| 2026-05-09 00:20 | -20.55487 | -54.75618 | 3082 ft | 171 kts | 33° |
| 2026-05-09 00:20 | -20.54606 | -54.74768 | 3068 ft | 169 kts | 34° |
| 2026-05-09 00:20 | -20.53758 | -54.73944 | 3047 ft | 160 kts | 33° |
| 2026-05-09 00:21 | -20.52979 | -54.73189 | 3057 ft | 150 kts | 33° |
| 2026-05-09 00:21 | -20.52204 | -54.72440 | 2987 ft | 150 kts | 33° |
| 2026-05-09 00:21 | -20.51454 | -54.71712 | 2810 ft | 146 kts | 32° |
| 2026-05-09 00:21 | -20.50705 | -54.70986 | 2624 ft | 146 kts | 30° |
| 2026-05-09 00:22 | -20.49932 | -54.70240 | 2441 ft | 154 kts | 36° |
| 2026-05-09 00:22 | -20.49127 | -54.69455 | 2212 ft | 156 kts | 39° |
| 2026-05-09 00:22 | -20.48320 | -54.68673 | 1974 ft | 151 kts | 41° |
| 2026-05-09 00:22 | -20.47564 | -54.67942 | 1840 ft | 145 kts | 42° |
| 2026-05-09 00:23 | -20.46929 | -54.67326 | 1838 ft | 63 kts | 44° |
| 2026-05-09 00:23 | -20.46713 | -54.67111 | 1838 ft | 35 kts | 43° |
| 2026-05-09 00:23 | -20.46541 | -54.66943 | 1837 ft | 33 kts | 43° |
| 2026-05-09 00:23 | -20.46376 | -54.66781 | 1836 ft | 31 kts | 43° |
| 2026-05-09 00:24 | -20.46255 | -54.66668 | 1836 ft | 21 kts | 41° |
| 2026-05-09 00:24 | -20.46129 | -54.66608 | 1837 ft | 21 kts | 346° |
| 2026-05-09 00:24 | -20.45995 | -54.66660 | 1836 ft | 20 kts | 339° |
| 2026-05-09 00:24 | -20.45867 | -54.66713 | 1836 ft | 19 kts | 339° |
| 2026-05-09 00:25 | -20.45831 | -54.66795 | 1836 ft | 13 kts | 263° |
| 2026-05-09 00:25 | -20.45824 | -54.66864 | 1836 ft | 1 kts | 322° |
| 2026-05-09 00:25 | -20.45823 | -54.66864 | 1836 ft | 0 kts | 322° |